Terminal Aerodrome Forecast
Issued by NWS

Home | Current Version | Previous Version | Text Only | Print | Product List | Glossary On
Versions: 1 2 3 4 5 6 7 8 9 10 11 12 13 14 15 16 17 18 19 20
611
FTUS44 KLZK 252145 AAA
TAFBPK
TAF AMD
KBPK 252145Z 2522/2618 34009G16KT P6SM SCT250
     FM260200 35006KT P6SM SCT250
     FM260800 VRB05KT P6SM SCT250
     FM261500 17008KT P6SM BKN100 BKN250=

USA.gov is the U.S. government's official web portal to all federal, state and local government web resources and services.